createdAt,value
2018-12-05T00:00:43.005Z,0.00
2018-12-05T00:01:42.996Z,0.00
2018-12-05T00:02:43.009Z,0.00
2018-12-05T00:03:42.975Z,0.00
2018-12-05T00:04:42.964Z,0.00
2018-12-05T00:05:42.951Z,0.00
2018-12-05T00:06:42.950Z,0.00
2018-12-05T00:07:42.968Z,0.00
2018-12-05T00:08:42.931Z,0.00
2018-12-05T00:09:42.920Z,0.00
2018-12-05T00:10:42.903Z,0.00
2018-12-05T00:11:42.896Z,0.00
2018-12-05T00:12:42.924Z,0.00
2018-12-05T00:13:42.891Z,0.00
2018-12-05T00:14:42.878Z,0.00
2018-12-05T00:15:42.863Z,0.00
2018-12-05T00:16:42.861Z,0.00
2018-12-05T00:17:42.879Z,0.00
2018-12-05T00:18:42.843Z,0.00
2018-12-05T00:19:42.831Z,0.00
2018-12-05T00:20:42.826Z,0.00
2018-12-05T00:21:42.815Z,0.00
2018-12-05T00:22:42.835Z,0.00
2018-12-05T00:23:42.803Z,0.00
2018-12-05T00:24:42.786Z,0.00
2018-12-05T00:25:42.771Z,0.00
2018-12-05T00:26:42.770Z,0.00
2018-12-05T00:27:42.791Z,0.00
2018-12-05T00:28:42.761Z,0.00
2018-12-05T00:29:42.747Z,0.00
2018-12-05T00:30:42.725Z,0.00
2018-12-05T00:31:42.725Z,0.00
2018-12-05T00:32:42.739Z,0.00
2018-12-05T00:33:42.712Z,0.00
2018-12-05T00:34:42.696Z,0.00
2018-12-05T00:35:42.690Z,0.00
2018-12-05T00:36:42.690Z,0.00
2018-12-05T00:37:42.699Z,0.00
2018-12-05T00:38:42.664Z,0.00
2018-12-05T00:39:42.654Z,0.00
2018-12-05T00:40:42.641Z,0.00
2018-12-05T00:41:42.638Z,0.00
2018-12-05T00:42:42.657Z,0.00
2018-12-05T00:43:42.620Z,0.00
2018-12-05T00:44:42.611Z,0.00
2018-12-05T00:45:42.604Z,0.00
2018-12-05T00:46:42.593Z,0.00
2018-12-05T00:47:42.618Z,0.00
2018-12-05T00:48:42.577Z,0.00
2018-12-05T00:49:42.571Z,0.00
2018-12-05T00:50:42.565Z,0.00
2018-12-05T00:51:42.553Z,0.00
2018-12-05T00:52:42.574Z,0.00
2018-12-05T00:53:42.538Z,0.00
2018-12-05T00:54:42.521Z,0.00
2018-12-05T00:55:42.523Z,0.00
2018-12-05T00:56:42.502Z,0.00
2018-12-05T00:57:42.532Z,0.00
2018-12-05T00:58:42.494Z,0.00
2018-12-05T00:59:42.484Z,0.00
2018-12-05T01:00:42.477Z,0.00
2018-12-05T01:01:42.494Z,0.00
2018-12-05T01:02:42.457Z,0.00
2018-12-05T01:03:42.446Z,0.00
2018-12-05T01:04:42.441Z,0.00
2018-12-05T01:05:42.431Z,0.00
2018-12-05T01:06:42.453Z,0.00
2018-12-05T01:07:42.419Z,0.00
2018-12-05T01:08:42.411Z,0.00
2018-12-05T01:09:42.394Z,0.00
2018-12-05T01:10:42.390Z,0.00
2018-12-05T01:11:42.420Z,0.00
2018-12-05T01:12:42.372Z,0.00
2018-12-05T01:13:42.367Z,0.00
2018-12-05T01:14:42.384Z,0.00
2018-12-05T01:15:42.350Z,0.00
2018-12-05T01:16:42.341Z,0.00
2018-12-05T01:17:42.358Z,0.00
2018-12-05T01:18:42.322Z,0.00
2018-12-05T01:19:42.315Z,0.00
2018-12-05T01:20:42.309Z,0.00
2018-12-05T01:21:42.287Z,0.00
2018-12-05T01:22:42.316Z,0.00
2018-12-05T01:23:42.280Z,0.00
2018-12-05T01:24:42.273Z,0.00
2018-12-05T01:25:42.257Z,0.00
2018-12-05T01:26:42.259Z,0.00
2018-12-05T01:27:45.744Z,0.00
2018-12-05T01:28:42.242Z,0.00
2018-12-05T01:29:42.228Z,0.00
2018-12-05T01:30:42.219Z,0.00
2018-12-05T01:31:42.248Z,0.00
2018-12-05T01:32:42.208Z,0.00
2018-12-05T01:33:42.199Z,0.00
2018-12-05T01:34:42.188Z,0.00
2018-12-05T01:35:42.250Z,0.00
2018-12-05T01:36:42.201Z,0.00
2018-12-05T01:37:42.163Z,0.00
2018-12-05T01:38:42.156Z,0.00
2018-12-05T01:39:42.174Z,0.00
2018-12-05T01:40:42.141Z,0.00
2018-12-05T01:41:42.131Z,0.00
2018-12-05T01:42:42.146Z,0.00
2018-12-05T01:43:42.113Z,0.00
2018-12-05T01:44:42.108Z,0.00
2018-12-05T01:45:42.097Z,0.00
2018-12-05T01:46:42.120Z,0.00
2018-12-05T01:47:42.081Z,0.00
2018-12-05T01:48:42.074Z,0.00
2018-12-05T01:49:42.086Z,0.00
2018-12-05T01:50:42.058Z,0.00
2018-12-05T01:51:42.047Z,0.00
2018-12-05T01:52:42.068Z,0.00
2018-12-05T01:53:42.027Z,0.00
2018-12-05T01:54:42.027Z,0.00
2018-12-05T01:55:42.012Z,0.00
2018-12-05T01:56:42.043Z,0.00
2018-12-05T01:57:42.013Z,0.00
2018-12-05T01:58:41.994Z,0.00
2018-12-05T01:59:42.549Z,0.00
2018-12-05T02:00:41.967Z,0.00
2018-12-05T02:01:41.995Z,0.00
2018-12-05T02:02:41.955Z,0.00
2018-12-05T02:03:41.948Z,0.00
2018-12-05T02:04:41.939Z,0.00
2018-12-05T02:05:41.929Z,0.00
2018-12-05T02:06:41.954Z,0.00
2018-12-05T02:07:41.918Z,0.00
2018-12-05T02:08:41.912Z,0.00
2018-12-05T02:09:41.900Z,0.00
2018-12-05T02:10:41.891Z,0.00
2018-12-05T02:11:41.909Z,0.00
2018-12-05T02:12:41.876Z,0.00
2018-12-05T02:13:41.867Z,0.00
2018-12-05T02:14:41.857Z,0.00
2018-12-05T02:15:41.854Z,0.00
2018-12-05T02:16:41.868Z,0.00
2018-12-05T02:17:41.838Z,0.00
2018-12-05T02:18:41.826Z,0.00
2018-12-05T02:19:41.824Z,0.00
2018-12-05T02:20:41.809Z,0.00
2018-12-05T02:21:41.820Z,0.00
2018-12-05T02:22:41.795Z,0.00
2018-12-05T02:23:41.783Z,0.00
2018-12-05T02:24:41.781Z,0.00
2018-12-05T02:25:41.762Z,0.00
2018-12-05T02:26:41.794Z,0.00
2018-12-05T02:27:41.752Z,0.00
2018-12-05T02:28:41.746Z,0.00
2018-12-05T02:29:41.738Z,0.00
2018-12-05T02:30:41.731Z,0.00
2018-12-05T02:31:41.751Z,0.00
2018-12-05T02:32:41.742Z,0.00
2018-12-05T02:33:41.702Z,0.00
2018-12-05T02:34:41.700Z,0.00
2018-12-05T02:35:41.715Z,0.00
2018-12-05T02:36:41.681Z,0.00
2018-12-05T02:37:41.668Z,0.00
2018-12-05T02:38:41.665Z,0.00
2018-12-05T02:39:41.655Z,0.00
2018-12-05T02:40:41.676Z,0.00
2018-12-05T02:41:41.638Z,0.00
2018-12-05T02:42:41.639Z,0.00
2018-12-05T02:43:41.626Z,0.00
2018-12-05T02:44:41.620Z,0.00
2018-12-05T02:45:41.643Z,0.00
2018-12-05T02:46:41.594Z,0.00
2018-12-05T02:47:41.595Z,0.00
2018-12-05T02:48:41.579Z,0.00
2018-12-05T02:49:41.571Z,0.00
2018-12-05T02:50:41.591Z,0.00
2018-12-05T02:51:41.552Z,0.00
2018-12-05T02:52:41.548Z,0.00
2018-12-05T02:53:41.536Z,0.00
2018-12-05T02:54:41.529Z,0.00
2018-12-05T02:55:41.848Z,0.00
2018-12-05T02:56:41.514Z,0.00
2018-12-05T02:57:41.506Z,0.00
2018-12-05T02:58:41.494Z,0.00
2018-12-05T02:59:41.492Z,0.00
2018-12-05T03:00:41.505Z,0.00
2018-12-05T03:01:41.469Z,0.00
2018-12-05T03:02:41.462Z,0.00
2018-12-05T03:03:41.450Z,0.00
2018-12-05T03:04:41.451Z,0.00
2018-12-05T03:05:41.460Z,0.00
2018-12-05T03:06:41.449Z,0.00
2018-12-05T03:07:41.588Z,0.00
2018-12-05T03:08:41.410Z,0.00
2018-12-05T03:09:41.402Z,0.00
2018-12-05T03:10:41.418Z,0.00
2018-12-05T03:11:41.385Z,0.00
2018-12-05T03:12:41.377Z,0.00
2018-12-05T03:13:41.369Z,0.00
2018-12-05T03:14:41.362Z,0.00
2018-12-05T03:15:41.376Z,0.00
2018-12-05T03:16:41.349Z,0.00
2018-12-05T03:17:41.336Z,0.00
2018-12-05T03:18:41.325Z,0.00
2018-12-05T03:19:41.313Z,0.00
2018-12-05T03:20:41.350Z,0.00
2018-12-05T03:21:41.301Z,0.00
2018-12-05T03:22:41.292Z,0.00
2018-12-05T03:23:41.285Z,0.00
2018-12-05T03:24:41.277Z,0.00
2018-12-05T03:25:41.290Z,0.00
2018-12-05T03:26:41.256Z,0.00
2018-12-05T03:27:41.250Z,0.00
2018-12-05T03:28:41.239Z,0.00
2018-12-05T03:29:41.237Z,0.00
2018-12-05T03:30:41.251Z,0.00
2018-12-05T03:31:41.220Z,0.00
2018-12-05T03:32:41.211Z,0.00
2018-12-05T03:33:41.202Z,0.00
2018-12-05T03:34:41.188Z,0.00
2018-12-05T03:35:41.208Z,0.00
2018-12-05T03:36:41.173Z,0.00
2018-12-05T03:37:41.163Z,0.00
2018-12-05T03:38:41.158Z,0.00
2018-12-05T03:39:41.147Z,0.00
2018-12-05T03:40:41.167Z,0.00
2018-12-05T03:41:41.132Z,0.00
2018-12-05T03:42:41.128Z,0.00
2018-12-05T03:43:41.120Z,0.00
2018-12-05T03:44:41.107Z,0.00
2018-12-05T03:45:41.123Z,0.00
2018-12-05T03:46:41.093Z,0.00
2018-12-05T03:47:41.083Z,0.00
2018-12-05T03:48:41.075Z,0.00
2018-12-05T03:49:41.067Z,0.00
2018-12-05T03:50:41.087Z,0.00
2018-12-05T03:51:41.044Z,0.00
2018-12-05T03:52:41.041Z,0.00
2018-12-05T03:53:41.031Z,0.00
2018-12-05T03:54:41.024Z,0.00
2018-12-05T03:55:41.044Z,0.00
2018-12-05T03:56:41.011Z,0.00
2018-12-05T03:57:41.000Z,0.00
2018-12-05T03:58:40.992Z,0.00
2018-12-05T03:59:40.984Z,0.00
2018-12-05T04:00:41.003Z,0.00
2018-12-05T04:01:40.967Z,0.00
2018-12-05T04:02:40.961Z,0.00
2018-12-05T04:03:40.955Z,0.00
2018-12-05T04:04:40.944Z,0.00
2018-12-05T04:05:40.965Z,0.00
2018-12-05T04:06:40.935Z,0.00
2018-12-05T04:07:40.918Z,0.00
2018-12-05T04:08:40.912Z,0.00
2018-12-05T04:09:40.901Z,0.00
2018-12-05T04:10:40.907Z,0.00
2018-12-05T04:11:40.875Z,0.00
2018-12-05T04:12:41.003Z,0.00
2018-12-05T04:13:40.855Z,0.00
2018-12-05T04:14:40.854Z,0.00
2018-12-05T04:15:40.867Z,0.00
2018-12-05T04:16:40.830Z,0.00
2018-12-05T04:17:40.829Z,0.00
2018-12-05T04:18:40.814Z,0.00
2018-12-05T04:19:40.807Z,0.00
2018-12-05T04:20:40.833Z,0.00
2018-12-05T04:21:40.792Z,0.00
2018-12-05T04:22:40.779Z,0.00
2018-12-05T04:23:40.831Z,0.00
2018-12-05T04:24:40.767Z,0.00
2018-12-05T04:25:40.787Z,0.00
2018-12-05T04:26:40.754Z,0.00
2018-12-05T04:27:40.743Z,0.00
2018-12-05T04:28:40.735Z,0.00
2018-12-05T04:29:40.729Z,0.00
2018-12-05T04:30:40.752Z,0.00
2018-12-05T04:31:40.745Z,0.00
2018-12-05T04:32:40.708Z,0.00
2018-12-05T04:33:40.692Z,0.00
2018-12-05T04:34:40.686Z,0.00
2018-12-05T04:35:40.680Z,0.00
2018-12-05T04:36:40.699Z,0.00
2018-12-05T04:37:40.742Z,0.00
2018-12-05T04:38:40.655Z,0.00
2018-12-05T04:39:40.656Z,0.00
2018-12-05T04:40:40.668Z,0.00
2018-12-05T04:41:40.624Z,0.00
2018-12-05T04:42:40.625Z,0.00
2018-12-05T04:43:40.615Z,0.00
2018-12-05T04:44:40.610Z,0.00
2018-12-05T04:45:40.620Z,0.00
2018-12-05T04:46:40.618Z,0.00
2018-12-05T04:47:41.362Z,0.00
2018-12-05T04:48:40.570Z,0.00
2018-12-05T04:49:40.562Z,0.00
2018-12-05T04:50:40.554Z,0.00
2018-12-05T04:51:40.574Z,0.00
2018-12-05T04:52:40.541Z,0.00
2018-12-05T04:53:40.530Z,0.00
2018-12-05T04:54:40.522Z,0.00
2018-12-05T04:55:40.514Z,0.00
2018-12-05T04:56:40.533Z,0.00
2018-12-05T04:57:40.499Z,0.00
2018-12-05T04:58:40.490Z,0.00
2018-12-05T04:59:40.480Z,0.00
2018-12-05T05:00:40.478Z,0.00
2018-12-05T05:01:40.488Z,0.00
2018-12-05T05:02:40.453Z,0.00
2018-12-05T05:03:40.446Z,0.00
2018-12-05T05:04:40.438Z,0.00
2018-12-05T05:05:40.434Z,0.00
2018-12-05T05:06:41.848Z,0.00
2018-12-05T05:07:40.410Z,0.00
2018-12-05T05:08:40.406Z,0.00
2018-12-05T05:09:40.397Z,0.00
2018-12-05T05:10:40.389Z,0.00
2018-12-05T05:11:40.410Z,0.00
2018-12-05T05:12:40.369Z,0.00
2018-12-05T05:13:40.362Z,0.00
2018-12-05T05:14:40.355Z,0.00
2018-12-05T05:15:40.351Z,0.00
2018-12-05T05:16:40.374Z,0.00
2018-12-05T05:17:40.330Z,0.00
2018-12-05T05:18:40.319Z,0.00
2018-12-05T05:19:40.322Z,0.00
2018-12-05T05:20:40.302Z,0.00
2018-12-05T05:21:40.329Z,0.00
2018-12-05T05:22:40.315Z,0.00
2018-12-05T05:23:40.273Z,0.00
2018-12-05T05:24:40.272Z,0.00
2018-12-05T05:25:40.258Z,0.00
2018-12-05T05:26:40.250Z,0.00
2018-12-05T05:27:45.882Z,0.00
2018-12-05T05:28:40.234Z,0.00
2018-12-05T05:29:40.226Z,0.00
2018-12-05T05:30:40.217Z,0.00
2018-12-05T05:31:40.317Z,0.00
2018-12-05T05:32:40.211Z,0.00
2018-12-05T05:33:40.191Z,0.00
2018-12-05T05:34:40.185Z,0.00
2018-12-05T05:35:40.174Z,0.00
2018-12-05T05:36:40.203Z,0.00
2018-12-05T05:37:40.157Z,0.00
2018-12-05T05:38:40.147Z,0.00
2018-12-05T05:39:40.136Z,0.00
2018-12-05T05:40:40.130Z,0.00
2018-12-05T05:41:40.144Z,0.00
2018-12-05T05:42:40.114Z,0.00
2018-12-05T05:43:40.100Z,0.00
2018-12-05T05:44:40.093Z,0.00
2018-12-05T05:45:40.085Z,0.00
2018-12-05T05:46:40.104Z,0.00
2018-12-05T05:47:40.073Z,0.00
2018-12-05T05:48:40.056Z,0.00
2018-12-05T05:49:40.049Z,0.00
2018-12-05T05:50:40.042Z,0.00
2018-12-05T05:51:40.060Z,0.00
2018-12-05T05:52:40.024Z,0.00
2018-12-05T05:53:40.012Z,0.00
2018-12-05T05:54:40.001Z,0.00
2018-12-05T05:55:39.996Z,0.00
2018-12-05T05:56:40.018Z,0.00
2018-12-05T05:57:40.005Z,0.00
2018-12-05T05:58:39.964Z,0.00
2018-12-05T05:59:39.961Z,0.00
2018-12-05T06:00:39.956Z,0.00
2018-12-05T06:01:39.945Z,0.00
2018-12-05T06:02:39.960Z,0.00
2018-12-05T06:03:39.920Z,0.00
2018-12-05T06:04:39.912Z,0.00
2018-12-05T06:05:39.898Z,0.00
2018-12-05T06:06:39.895Z,0.00
2018-12-05T06:07:39.917Z,0.00
2018-12-05T06:08:39.876Z,0.00
2018-12-05T06:09:39.867Z,0.00
2018-12-05T06:10:39.860Z,0.00
2018-12-05T06:11:39.881Z,0.00
2018-12-05T06:12:39.840Z,0.00
2018-12-05T06:13:39.831Z,0.00
2018-12-05T06:14:39.821Z,0.00
2018-12-05T06:15:39.810Z,0.00
2018-12-05T06:16:39.829Z,4.00
2018-12-05T06:17:39.792Z,4.00
2018-12-05T06:18:39.776Z,4.00
2018-12-05T06:19:39.771Z,0.00
2018-12-05T06:20:39.775Z,4.00
2018-12-05T06:21:39.777Z,4.00
2018-12-05T06:22:39.743Z,4.00
2018-12-05T06:23:39.736Z,4.00
2018-12-05T06:24:39.725Z,8.00
2018-12-05T06:25:40.513Z,4.00
2018-12-05T06:26:39.707Z,4.00
2018-12-05T06:27:39.728Z,8.00
2018-12-05T06:28:39.686Z,8.00
2018-12-05T06:29:39.677Z,12.00
2018-12-05T06:30:40.643Z,12.00
2018-12-05T06:31:39.660Z,16.00
2018-12-05T06:32:39.685Z,20.00
2018-12-05T06:33:39.640Z,24.00
2018-12-05T06:34:39.627Z,24.00
2018-12-05T06:35:39.628Z,28.00
2018-12-05T06:36:39.615Z,32.00
2018-12-05T06:37:39.640Z,40.00
2018-12-05T06:38:39.595Z,44.00
2018-12-05T06:39:39.587Z,56.00
2018-12-05T06:40:39.583Z,60.00
2018-12-05T06:41:39.564Z,72.00
2018-12-05T06:42:39.594Z,80.00
2018-12-05T06:43:39.542Z,92.00
2018-12-05T06:44:39.539Z,104.00
2018-12-05T06:45:39.531Z,116.00
2018-12-05T06:46:39.551Z,132.00
2018-12-05T06:47:39.510Z,148.00
2018-12-05T06:48:39.531Z,168.00
2018-12-05T06:49:39.490Z,188.00
2018-12-05T06:50:39.489Z,212.00
2018-12-05T06:51:39.470Z,232.00
2018-12-05T06:52:39.489Z,256.00
2018-12-05T06:53:39.462Z,276.00
2018-12-05T06:54:39.446Z,304.00
2018-12-05T06:55:39.444Z,328.00
2018-12-05T06:56:39.430Z,356.00
2018-12-05T06:57:39.448Z,380.00
2018-12-05T06:58:39.408Z,412.00
2018-12-05T06:59:39.395Z,444.00
2018-12-05T07:00:39.385Z,476.00
2018-12-05T07:01:39.413Z,512.00
2018-12-05T07:02:39.370Z,548.00
2018-12-05T07:03:39.385Z,588.00
2018-12-05T07:04:39.350Z,628.00
2018-12-05T07:05:39.340Z,672.00
2018-12-05T07:06:39.332Z,720.00
2018-12-05T07:07:39.323Z,764.00
2018-12-05T07:08:39.341Z,808.00
2018-12-05T07:09:39.302Z,848.00
2018-12-05T07:10:39.405Z,896.00
2018-12-05T07:11:39.282Z,944.00
2018-12-05T07:12:39.306Z,1000.00
2018-12-05T07:13:39.289Z,1056.00
2018-12-05T07:14:39.256Z,1108.00
2018-12-05T07:15:39.245Z,1156.00
2018-12-05T07:16:39.237Z,1208.00
2018-12-05T07:17:39.224Z,1260.00
2018-12-05T07:18:39.245Z,1312.00
2018-12-05T07:19:39.211Z,1364.00
2018-12-05T07:20:39.203Z,1416.00
2018-12-05T07:21:39.190Z,1468.00
2018-12-05T07:22:39.180Z,1516.00
2018-12-05T07:23:39.195Z,1564.00
2018-12-05T07:24:39.162Z,1608.00
2018-12-05T07:25:39.160Z,1664.00
2018-12-05T07:26:39.146Z,1720.00
2018-12-05T07:27:39.134Z,1784.00
2018-12-05T07:28:39.152Z,1860.00
2018-12-05T07:29:39.116Z,1924.00
2018-12-05T07:30:39.105Z,1984.00
2018-12-05T07:31:39.097Z,2028.00
2018-12-05T07:32:39.088Z,2076.00
2018-12-05T07:33:39.113Z,2128.00
2018-12-05T07:34:39.076Z,2172.00
2018-12-05T07:35:39.061Z,2216.00
2018-12-05T07:36:39.053Z,2248.00
2018-12-05T07:37:39.052Z,2280.00
2018-12-05T07:38:39.063Z,2312.00
2018-12-05T07:39:39.024Z,2336.00
2018-12-05T07:40:39.020Z,2360.00
2018-12-05T07:41:39.008Z,2388.00
2018-12-05T07:42:39.030Z,2416.00
2018-12-05T07:43:38.988Z,2436.00
2018-12-05T07:44:39.011Z,2452.00
2018-12-05T07:45:38.965Z,2480.00
2018-12-05T07:46:38.965Z,2504.00
2018-12-05T07:47:38.955Z,2536.00
2018-12-05T07:48:38.947Z,2572.00
2018-12-05T07:49:38.972Z,2596.00
2018-12-05T07:50:38.927Z,2620.00
2018-12-05T07:51:38.919Z,2644.00
2018-12-05T07:52:38.911Z,2680.00
2018-12-05T07:53:38.927Z,2712.00
2018-12-05T07:54:38.891Z,2736.00
2018-12-05T07:55:38.887Z,2752.00
2018-12-05T07:56:38.875Z,2776.00
2018-12-05T07:57:38.867Z,2796.00
2018-12-05T07:58:38.883Z,2812.00
2018-12-05T07:59:38.849Z,2828.00
2018-12-05T08:00:38.836Z,2868.00
2018-12-05T08:01:38.831Z,2904.00
2018-12-05T08:02:38.823Z,2944.00
2018-12-05T08:03:38.846Z,2992.00
2018-12-05T08:04:38.806Z,3016.00
2018-12-05T08:05:38.801Z,3020.00
2018-12-05T08:06:38.791Z,3032.00
2018-12-05T08:07:38.806Z,3088.00
2018-12-05T08:08:38.779Z,3388.00
2018-12-05T08:09:38.790Z,4056.00
2018-12-05T08:10:38.757Z,4428.00
2018-12-05T08:11:38.743Z,4316.00
2018-12-05T08:12:38.744Z,4020.00
2018-12-05T08:13:38.730Z,4196.00
2018-12-05T08:14:38.749Z,4940.00
2018-12-05T08:15:38.724Z,5036.00
2018-12-05T08:16:38.705Z,4712.00
2018-12-05T08:17:38.701Z,4488.00
2018-12-05T08:18:38.694Z,4868.00
2018-12-05T08:19:38.713Z,5060.00
2018-12-05T08:20:38.677Z,4488.00
2018-12-05T08:21:38.673Z,4484.00
2018-12-05T08:22:38.668Z,4680.00
2018-12-05T08:23:38.662Z,4624.00
2018-12-05T08:24:38.688Z,5036.00
2018-12-05T08:25:38.667Z,5532.00
2018-12-05T08:26:38.643Z,5472.00
2018-12-05T08:27:38.645Z,5284.00
2018-12-05T08:28:38.631Z,5500.00
2018-12-05T08:29:38.656Z,5552.00
2018-12-05T08:30:38.624Z,5780.00
2018-12-05T08:31:38.618Z,6344.00
2018-12-05T08:32:38.612Z,6148.00
2018-12-05T08:33:38.608Z,5720.00
2018-12-05T08:34:38.632Z,5676.00
2018-12-05T08:35:38.596Z,5356.00
2018-12-05T08:36:38.598Z,5816.00
2018-12-05T08:37:38.587Z,6936.00
2018-12-05T08:38:38.585Z,7688.00
2018-12-05T08:39:38.611Z,8552.00
2018-12-05T08:40:38.575Z,8820.00
2018-12-05T08:41:38.572Z,8972.00
2018-12-05T08:42:38.567Z,9040.00
2018-12-05T08:43:38.566Z,8968.00
2018-12-05T08:44:38.592Z,9360.00
2018-12-05T08:45:38.556Z,9520.00
2018-12-05T08:46:38.560Z,9584.00
2018-12-05T08:47:38.552Z,9772.00
2018-12-05T08:48:38.555Z,10084.00
2018-12-05T08:49:38.579Z,10268.00
2018-12-05T08:50:38.548Z,10268.00
2018-12-05T08:51:38.553Z,10396.00
2018-12-05T08:52:38.546Z,10608.00
2018-12-05T08:53:38.542Z,10860.00
2018-12-05T08:54:38.572Z,10884.00
2018-12-05T08:55:38.749Z,10988.00
2018-12-05T08:56:39.566Z,11020.00
2018-12-05T08:57:40.018Z,11128.00
2018-12-05T08:58:38.772Z,9880.00
2018-12-05T08:59:39.891Z,10836.00
2018-12-05T09:00:45.320Z,10524.00
2018-12-05T09:01:40.115Z,10076.00
2018-12-05T09:02:43.905Z,9456.00
2018-12-05T09:03:39.272Z,8772.00
2018-12-05T09:04:38.555Z,8572.00
2018-12-05T09:05:41.515Z,8108.00
2018-12-05T09:06:39.427Z,8056.00
2018-12-05T09:07:53.278Z,8208.00
2018-12-05T09:08:40.617Z,8132.00
2018-12-05T09:09:38.881Z,7624.00
2018-12-05T09:10:38.698Z,7536.00
2018-12-05T09:11:38.852Z,7484.00
2018-12-05T09:12:38.731Z,7492.00
2018-12-05T09:13:38.718Z,7504.00
2018-12-05T09:14:38.591Z,7608.00
2018-12-05T09:15:40.378Z,7640.00
2018-12-05T09:16:38.599Z,7680.00
2018-12-05T09:17:38.670Z,7876.00
2018-12-05T09:18:38.616Z,8088.00
2018-12-05T09:19:38.611Z,8236.00
2018-12-05T09:20:38.733Z,8264.00
2018-12-05T09:21:38.620Z,8280.00
2018-12-05T09:22:41.468Z,8304.00
2018-12-05T09:23:38.635Z,8388.00
2018-12-05T09:24:38.637Z,8472.00
2018-12-05T09:25:38.673Z,8484.00
2018-12-05T09:26:38.651Z,8420.00
2018-12-05T09:27:38.659Z,8420.00
2018-12-05T09:28:38.667Z,8356.00
2018-12-05T09:29:38.668Z,8352.00
2018-12-05T09:30:38.699Z,8312.00
2018-12-05T09:31:38.699Z,8384.00
2018-12-05T09:32:38.696Z,8332.00
2018-12-05T09:33:38.701Z,8432.00
2018-12-05T09:34:38.743Z,8432.00
2018-12-05T09:35:38.779Z,9188.00
2018-12-05T09:36:38.714Z,9600.00
2018-12-05T09:37:38.720Z,9960.00
2018-12-05T09:38:38.766Z,9968.00
2018-12-05T09:39:38.754Z,9776.00
2018-12-05T09:40:38.807Z,9492.00
2018-12-05T09:41:38.758Z,9252.00
2018-12-05T09:42:39.699Z,9268.00
2018-12-05T09:43:38.894Z,9492.00
2018-12-05T09:44:38.779Z,9604.00
2018-12-05T09:45:38.790Z,9388.00
2018-12-05T09:46:38.831Z,9252.00
2018-12-05T09:47:38.872Z,9248.00
2018-12-05T09:48:38.810Z,9528.00
2018-12-05T09:49:38.823Z,9696.00
2018-12-05T09:50:38.879Z,9764.00
2018-12-05T09:51:38.912Z,9820.00
2018-12-05T09:52:38.852Z,10024.00
2018-12-05T09:53:38.973Z,10252.00
2018-12-05T09:54:38.872Z,10212.00
2018-12-05T09:55:38.875Z,10732.00
2018-12-05T09:56:38.913Z,10800.00
2018-12-05T09:57:38.897Z,10496.00
2018-12-05T09:58:38.903Z,10300.00
2018-12-05T09:59:38.914Z,10484.00
2018-12-05T10:00:38.923Z,10752.00
2018-12-05T10:01:38.963Z,10656.00
2018-12-05T10:02:38.949Z,10584.00
2018-12-05T10:03:38.977Z,10656.00
2018-12-05T10:04:38.964Z,10904.00
2018-12-05T10:05:38.970Z,11152.00
2018-12-05T10:06:39.013Z,11268.00
2018-12-05T10:07:38.998Z,11348.00
2018-12-05T10:08:39.048Z,11248.00
2018-12-05T10:09:39.015Z,11404.00
2018-12-05T10:10:39.029Z,11672.00
2018-12-05T10:11:39.033Z,11472.00
2018-12-05T10:12:39.077Z,11872.00
2018-12-05T10:13:39.058Z,11872.00
2018-12-05T10:14:39.061Z,12068.00
2018-12-05T10:15:39.076Z,12416.00
2018-12-05T10:16:39.109Z,12948.00
2018-12-05T10:17:39.096Z,13224.00
2018-12-05T10:18:39.101Z,13856.00
2018-12-05T10:19:39.108Z,15124.00
2018-12-05T10:20:39.120Z,15808.00
2018-12-05T10:21:39.164Z,18496.00
2018-12-05T10:22:39.140Z,23584.00
2018-12-05T10:23:39.153Z,29280.00
2018-12-05T10:24:39.222Z,35104.00
2018-12-05T10:25:39.224Z,40288.00
2018-12-05T10:26:39.262Z,41952.00
2018-12-05T10:27:39.207Z,44512.00
2018-12-05T10:28:39.221Z,46720.00
2018-12-05T10:29:39.228Z,47648.00
2018-12-05T10:30:39.252Z,48160.00
2018-12-05T10:31:43.964Z,46464.00
2018-12-05T10:32:39.240Z,44192.00
2018-12-05T10:33:39.255Z,42944.00
2018-12-05T10:34:39.270Z,43968.00
2018-12-05T10:35:39.279Z,46432.00
2018-12-05T10:36:39.316Z,46944.00
2018-12-05T10:37:39.297Z,46656.00
2018-12-05T10:38:39.335Z,46144.00
2018-12-05T10:39:39.320Z,44736.00
2018-12-05T10:40:39.333Z,41696.00
2018-12-05T10:41:39.370Z,39520.00
2018-12-05T10:42:39.381Z,35936.00
2018-12-05T10:43:39.367Z,35008.00
2018-12-05T10:44:39.386Z,33696.00
2018-12-05T10:45:39.386Z,33632.00
2018-12-05T10:46:39.428Z,35968.00
2018-12-05T10:47:39.411Z,37216.00
2018-12-05T10:48:40.645Z,37856.00
2018-12-05T10:49:39.435Z,39232.00
2018-12-05T10:50:39.450Z,42912.00
2018-12-05T10:51:39.482Z,44288.00
2018-12-05T10:52:39.466Z,43744.00
2018-12-05T10:53:39.475Z,40832.00
2018-12-05T10:54:39.492Z,38144.00
2018-12-05T10:55:39.504Z,36832.00
2018-12-05T10:56:39.541Z,38944.00
2018-12-05T10:57:39.529Z,39488.00
2018-12-05T10:58:39.537Z,39040.00
2018-12-05T10:59:39.550Z,39328.00
2018-12-05T11:00:39.568Z,39232.00
2018-12-05T11:01:39.597Z,38112.00
2018-12-05T11:02:39.581Z,37856.00
2018-12-05T11:03:39.593Z,42048.00
2018-12-05T11:04:39.607Z,40000.00
2018-12-05T11:05:39.613Z,39936.00
2018-12-05T11:06:39.649Z,38560.00
2018-12-05T11:07:39.633Z,35424.00
2018-12-05T11:08:39.645Z,35968.00
2018-12-05T11:09:39.656Z,36096.00
2018-12-05T11:10:39.662Z,34816.00
2018-12-05T11:11:39.697Z,33696.00
2018-12-05T11:12:39.683Z,34400.00
2018-12-05T11:13:39.689Z,34592.00
2018-12-05T11:14:39.704Z,34528.00
2018-12-05T11:15:39.721Z,37088.00
2018-12-05T11:16:39.743Z,37920.00
2018-12-05T11:17:39.724Z,32640.00
2018-12-05T11:18:39.733Z,33664.00
2018-12-05T11:19:39.766Z,34432.00
2018-12-05T11:20:39.747Z,34528.00
2018-12-05T11:21:39.752Z,31968.00
2018-12-05T11:22:39.794Z,29152.00
2018-12-05T11:23:39.775Z,25568.00
2018-12-05T11:24:39.777Z,22144.00
2018-12-05T11:25:39.780Z,23168.00
2018-12-05T11:26:39.791Z,23872.00
2018-12-05T11:27:39.828Z,26784.00
2018-12-05T11:28:39.809Z,26560.00
2018-12-05T11:29:39.811Z,28416.00
2018-12-05T11:30:39.825Z,29600.00
2018-12-05T11:31:39.824Z,29696.00
2018-12-05T11:32:39.860Z,29696.00
2018-12-05T11:33:39.835Z,29856.00
2018-12-05T11:34:39.844Z,29568.00
2018-12-05T11:35:39.853Z,28032.00
2018-12-05T11:36:39.887Z,26656.00
2018-12-05T11:37:39.883Z,27136.00
2018-12-05T11:38:39.872Z,26144.00
2018-12-05T11:39:39.905Z,25664.00
2018-12-05T11:40:39.883Z,25472.00
2018-12-05T11:41:39.889Z,24512.00
2018-12-05T11:42:39.923Z,23584.00
2018-12-05T11:43:39.905Z,23872.00
2018-12-05T11:44:39.908Z,22624.00
2018-12-05T11:45:39.916Z,22176.00
2018-12-05T11:46:39.920Z,22944.00
2018-12-05T11:47:39.958Z,22720.00
2018-12-05T11:48:39.935Z,22944.00
2018-12-05T11:49:39.931Z,22912.00
2018-12-05T11:50:39.959Z,22432.00
2018-12-05T11:51:39.949Z,23616.00
2018-12-05T11:52:39.983Z,24800.00
2018-12-05T11:53:39.964Z,25248.00
2018-12-05T11:54:39.973Z,24832.00
2018-12-05T11:55:39.968Z,24416.00
2018-12-05T11:56:39.976Z,24544.00
2018-12-05T11:57:40.005Z,24960.00
2018-12-05T11:58:39.985Z,24768.00
2018-12-05T11:59:39.988Z,24544.00
2018-12-05T12:00:40.000Z,23808.00
2018-12-05T12:01:40.000Z,23616.00
2018-12-05T12:02:40.037Z,24320.00
2018-12-05T12:03:40.025Z,23840.00
2018-12-05T12:04:40.016Z,23360.00
2018-12-05T12:05:40.024Z,22752.00
2018-12-05T12:06:40.028Z,22464.00
2018-12-05T12:07:40.064Z,22112.00
2018-12-05T12:08:40.039Z,22112.00
2018-12-05T12:09:40.050Z,21856.00
2018-12-05T12:10:40.051Z,22368.00
2018-12-05T12:11:40.058Z,21792.00
2018-12-05T12:12:40.095Z,21504.00
2018-12-05T12:13:40.067Z,22528.00
2018-12-05T12:14:40.073Z,22592.00
2018-12-05T12:15:40.082Z,22752.00
2018-12-05T12:16:40.117Z,23360.00
2018-12-05T12:17:41.853Z,22784.00
2018-12-05T12:18:40.100Z,21088.00
2018-12-05T12:19:40.139Z,20672.00
2018-12-05T12:20:40.114Z,19808.00
2018-12-05T12:21:40.119Z,19552.00
2018-12-05T12:22:40.165Z,19584.00
2018-12-05T12:23:40.136Z,19584.00
2018-12-05T12:24:40.144Z,18720.00
2018-12-05T12:25:40.151Z,18944.00
2018-12-05T12:26:40.162Z,18944.00
2018-12-05T12:27:40.197Z,18560.00
2018-12-05T12:28:40.178Z,18112.00
2018-12-05T12:29:40.182Z,17408.00
2018-12-05T12:30:40.195Z,16544.00
2018-12-05T12:31:40.191Z,15712.00
2018-12-05T12:32:40.229Z,12824.00
2018-12-05T12:33:40.208Z,13956.00
2018-12-05T12:34:40.241Z,14636.00
2018-12-05T12:35:40.224Z,14632.00
2018-12-05T12:36:40.224Z,14624.00
2018-12-05T12:37:40.237Z,14240.00